createdAt,value
2018-12-19T00:00:19.628Z,3.53
2018-12-19T00:02:50.253Z,4.00
2018-12-19T00:05:20.957Z,4.47
2018-12-19T00:07:50.788Z,3.17
2018-12-19T00:10:19.595Z,3.87
2018-12-19T00:12:48.371Z,3.33
2018-12-19T00:15:17.125Z,4.27
2018-12-19T00:17:47.832Z,3.27
2018-12-19T00:20:16.548Z,3.33
2018-12-19T00:22:45.312Z,3.70
2018-12-19T00:30:21.865Z,2.80
2018-12-19T00:32:52.560Z,3.27
2018-12-19T00:35:23.268Z,3.30
2018-12-19T00:37:52.144Z,2.87
2018-12-19T00:40:20.944Z,3.98
2018-12-19T00:42:49.729Z,3.40
2018-12-19T00:45:18.425Z,3.30
2018-12-19T00:47:47.185Z,3.63
2018-12-19T00:50:15.984Z,4.12
2018-12-19T00:52:44.744Z,3.80
2018-12-19T00:55:13.512Z,2.83
2018-12-19T00:57:42.281Z,3.43
2018-12-19T01:00:11.518Z,3.05
2018-12-19T01:02:40.800Z,3.17
2018-12-19T01:05:10.677Z,3.20
2018-12-19T01:07:39.448Z,3.33
2018-12-19T01:10:08.347Z,2.83
2018-12-19T01:12:37.102Z,3.60
2018-12-19T01:15:05.956Z,2.80
2018-12-19T01:17:34.660Z,3.70
2018-12-19T01:20:03.566Z,2.80
2018-12-19T01:22:33.060Z,3.03
2018-12-19T01:25:01.778Z,2.90
2018-12-19T01:27:30.645Z,3.73
2018-12-19T01:29:59.345Z,3.80
2018-12-19T01:32:28.061Z,3.67
2018-12-19T01:34:56.820Z,3.43
2018-12-19T01:37:25.670Z,3.17
2018-12-19T01:39:54.400Z,3.07
2018-12-19T01:42:23.100Z,3.47
2018-12-19T01:44:51.824Z,3.20
2018-12-19T01:47:20.657Z,2.70
2018-12-19T01:49:49.445Z,3.40
2018-12-19T01:52:18.225Z,3.17
2018-12-19T01:54:46.961Z,3.33
2018-12-19T01:57:15.742Z,3.50
2018-12-19T01:59:44.436Z,3.35
2018-12-19T02:02:13.004Z,3.60
2018-12-19T02:04:41.945Z,3.20
2018-12-19T02:07:10.769Z,3.80
2018-12-19T02:09:39.524Z,3.90
2018-12-19T02:12:08.245Z,4.22
2018-12-19T02:14:36.956Z,3.50
2018-12-19T02:17:05.662Z,4.33
2018-12-19T02:19:34.364Z,4.27
2018-12-19T02:22:03.835Z,3.42
2018-12-19T02:24:32.480Z,3.50
2018-12-19T02:27:01.204Z,3.83
2018-12-19T02:29:30.081Z,3.40
2018-12-19T02:31:58.980Z,3.40
2018-12-19T02:34:27.717Z,4.10
2018-12-19T02:36:56.440Z,4.50
2018-12-19T02:39:25.279Z,3.40
2018-12-19T02:41:54.013Z,4.43
2018-12-19T02:44:22.716Z,4.57
2018-12-19T02:46:51.440Z,4.47
2018-12-19T02:49:20.152Z,3.92
2018-12-19T02:51:48.855Z,4.53
2018-12-19T02:54:17.601Z,4.15
2018-12-19T02:56:46.299Z,4.37
2018-12-19T02:59:14.988Z,3.73
2018-12-19T03:01:43.906Z,4.58
2018-12-19T03:04:12.596Z,4.27
2018-12-19T03:06:41.390Z,4.73
2018-12-19T03:09:10.188Z,4.40
2018-12-19T03:11:39.022Z,4.83
2018-12-19T03:14:07.788Z,4.93
2018-12-19T03:16:36.844Z,3.73
2018-12-19T03:19:05.640Z,4.97
2018-12-19T03:21:34.408Z,5.20
2018-12-19T03:24:03.182Z,4.17
2018-12-19T03:26:31.948Z,3.87
2018-12-19T03:29:01.553Z,4.07
2018-12-19T03:31:30.358Z,5.07
2018-12-19T03:33:59.056Z,4.20
2018-12-19T03:36:27.752Z,4.30
2018-12-19T03:38:56.952Z,4.97
2018-12-19T03:41:25.635Z,5.60
2018-12-19T03:43:54.665Z,4.40
2018-12-19T03:46:23.408Z,5.67
2018-12-19T03:48:56.401Z,4.97
2018-12-19T03:51:25.245Z,4.30
2018-12-19T03:53:54.122Z,5.17
2018-12-19T03:56:22.900Z,4.30
2018-12-19T03:58:51.749Z,4.43
2018-12-19T04:01:20.605Z,4.47
2018-12-19T04:03:49.307Z,5.30
2018-12-19T04:06:18.081Z,4.50
2018-12-19T04:08:46.848Z,4.83
2018-12-19T04:11:15.621Z,4.15
2018-12-19T04:13:44.327Z,4.93
2018-12-19T04:16:13.127Z,3.93
2018-12-19T04:18:41.824Z,4.83
2018-12-19T04:21:10.697Z,4.23
2018-12-19T04:23:39.208Z,4.00
2018-12-19T04:26:07.890Z,3.93
2018-12-19T04:28:36.655Z,4.40
2018-12-19T04:31:06.116Z,4.10
2018-12-19T04:33:34.874Z,3.13
2018-12-19T04:36:04.568Z,4.97
2018-12-19T04:38:33.551Z,3.83
2018-12-19T04:41:02.337Z,3.73
2018-12-19T04:43:31.047Z,4.65
2018-12-19T04:45:59.779Z,4.03
2018-12-19T04:48:28.472Z,5.23
2018-12-19T04:50:57.240Z,4.53
2018-12-19T04:53:25.958Z,7.10
2018-12-19T04:55:54.737Z,5.60
2018-12-19T04:58:24.159Z,6.27
2018-12-19T05:00:52.929Z,6.53
2018-12-19T05:03:21.694Z,5.50
2018-12-19T05:05:50.392Z,6.12
2018-12-19T05:08:19.166Z,6.67
2018-12-19T05:10:47.869Z,6.30
2018-12-19T05:13:16.634Z,16.50
2018-12-19T05:15:46.449Z,9.77
2018-12-19T05:18:15.152Z,9.90
2018-12-19T05:20:45.789Z,8.03
2018-12-19T05:23:14.560Z,7.50
2018-12-19T05:25:43.276Z,6.90
2018-12-19T05:28:12.024Z,5.10
2018-12-19T05:30:40.725Z,4.03
2018-12-19T05:33:09.429Z,9.47
2018-12-19T05:35:38.145Z,7.12
2018-12-19T05:38:06.849Z,3.80
2018-12-19T05:40:35.664Z,4.43
2018-12-19T05:43:04.521Z,4.40
2018-12-19T05:45:33.408Z,4.85
2018-12-19T05:48:02.117Z,4.20
2018-12-19T05:50:31.089Z,4.90
2018-12-19T05:52:59.869Z,4.53
2018-12-19T05:55:28.568Z,4.65
2018-12-19T05:57:57.341Z,4.63
2018-12-19T06:00:26.121Z,3.53
2018-12-19T06:02:56.905Z,3.90
2018-12-19T06:05:25.696Z,4.43
2018-12-19T06:07:54.469Z,3.03
2018-12-19T06:10:26.130Z,3.73
2018-12-19T06:12:54.025Z,3.00
2018-12-19T06:15:22.875Z,5.87
2018-12-19T06:17:52.292Z,5.50
2018-12-19T06:20:21.074Z,5.70
2018-12-19T06:22:49.901Z,5.20
2018-12-19T06:25:18.652Z,6.30
2018-12-19T06:27:47.747Z,4.97
2018-12-19T06:30:17.286Z,5.03
2018-12-19T06:32:46.377Z,3.80
2018-12-19T06:35:15.176Z,4.30
2018-12-19T06:37:43.906Z,3.30
2018-12-19T06:40:12.594Z,4.33
2018-12-19T06:42:41.400Z,4.27
2018-12-19T06:45:10.172Z,4.60
2018-12-19T06:47:39.002Z,4.67
2018-12-19T06:50:09.186Z,4.92
2018-12-19T06:52:37.928Z,5.00
2018-12-19T06:55:06.790Z,4.47
2018-12-19T06:57:35.732Z,4.15
2018-12-19T07:00:06.887Z,4.83
2018-12-19T07:02:35.677Z,4.33
2018-12-19T07:05:05.942Z,4.50
2018-12-19T07:07:34.751Z,4.63
2018-12-19T07:10:03.560Z,5.17
2018-12-19T07:12:32.296Z,6.30
2018-12-19T07:15:01.919Z,5.70
2018-12-19T07:17:30.654Z,6.03
2018-12-19T07:19:59.353Z,4.77
2018-12-19T07:22:28.124Z,6.90
2018-12-19T07:24:56.827Z,6.60
2018-12-19T07:27:25.604Z,7.17
2018-12-19T07:29:54.457Z,5.50
2018-12-19T07:32:23.273Z,4.95
2018-12-19T07:34:52.196Z,6.10
2018-12-19T07:37:20.971Z,6.23
2018-12-19T07:39:49.678Z,5.00
2018-12-19T07:42:18.458Z,4.80
2018-12-19T07:44:47.938Z,5.47
2018-12-19T07:47:16.748Z,5.27
2018-12-19T07:49:45.816Z,5.43
2018-12-19T07:52:14.516Z,4.73
2018-12-19T07:54:43.228Z,6.33
2018-12-19T07:57:11.973Z,6.67
2018-12-19T07:59:40.732Z,6.30
2018-12-19T08:02:10.520Z,7.03
2018-12-19T08:04:39.324Z,6.35
2018-12-19T08:07:08.032Z,5.72
2018-12-19T08:09:36.870Z,6.03
2018-12-19T08:12:05.657Z,5.57
2018-12-19T08:14:34.364Z,6.13
2018-12-19T08:17:03.296Z,6.10
2018-12-19T08:19:32.083Z,5.80
2018-12-19T08:22:00.807Z,5.93
2018-12-19T08:24:29.603Z,6.10
2018-12-19T08:26:58.346Z,6.95
2018-12-19T08:29:27.129Z,7.67
2018-12-19T08:31:55.889Z,5.53
2018-12-19T08:34:24.601Z,6.78
2018-12-19T08:36:53.371Z,6.17
2018-12-19T08:39:22.680Z,5.83
2018-12-19T08:41:51.821Z,7.35
2018-12-19T08:44:20.640Z,8.63
2018-12-19T08:46:49.345Z,7.40
2018-12-19T08:49:18.106Z,9.38
2018-12-19T08:51:46.873Z,8.73
2018-12-19T08:54:15.692Z,7.77
2018-12-19T08:56:44.476Z,6.03
2018-12-19T08:59:13.194Z,5.95
2018-12-19T09:01:41.921Z,6.25
2018-12-19T09:04:10.716Z,6.03
2018-12-19T09:06:39.540Z,7.70
2018-12-19T09:09:08.246Z,5.62
2018-12-19T09:11:37.061Z,5.78
2018-12-19T09:14:05.856Z,5.87
2018-12-19T09:16:34.660Z,5.53
2018-12-19T09:19:03.500Z,5.63
2018-12-19T09:21:32.268Z,6.23
2018-12-19T09:24:00.996Z,6.40
2018-12-19T09:26:29.693Z,6.63
2018-12-19T09:28:58.466Z,7.10
2018-12-19T09:31:27.231Z,6.63
2018-12-19T09:33:56.004Z,6.47
2018-12-19T09:36:24.768Z,6.97
2018-12-19T09:38:53.607Z,5.80
2018-12-19T09:41:22.305Z,6.45
2018-12-19T09:43:51.048Z,5.95
2018-12-19T09:46:19.885Z,7.00
2018-12-19T09:48:48.653Z,7.10
2018-12-19T09:51:17.412Z,6.83
2018-12-19T09:53:46.792Z,6.03
2018-12-19T09:56:15.619Z,5.40
2018-12-19T09:58:44.320Z,7.03
2018-12-19T10:01:13.087Z,6.33
2018-12-19T10:03:41.800Z,6.40
2018-12-19T10:06:10.568Z,6.60
2018-12-19T10:08:39.292Z,6.53
2018-12-19T10:11:08.120Z,6.60
2018-12-19T10:13:36.832Z,4.93
2018-12-19T10:16:05.678Z,6.43
2018-12-19T10:18:34.609Z,5.90
2018-12-19T10:21:03.442Z,5.97
2018-12-19T10:23:32.456Z,6.33
2018-12-19T10:26:05.484Z,5.40
2018-12-19T10:28:35.291Z,4.90
2018-12-19T10:31:04.288Z,5.80
2018-12-19T10:33:33.100Z,6.75
2018-12-19T10:36:01.798Z,5.87
2018-12-19T10:38:30.642Z,6.20
2018-12-19T10:40:59.415Z,5.73
2018-12-19T10:43:28.160Z,6.03
2018-12-19T10:45:56.860Z,7.00
2018-12-19T10:48:25.564Z,6.07
2018-12-19T10:50:54.336Z,6.67
2018-12-19T10:53:23.113Z,6.57
2018-12-19T10:55:51.881Z,6.23
2018-12-19T10:58:20.597Z,8.87
2018-12-19T11:00:54.997Z,9.68
2018-12-19T11:03:23.792Z,10.20
2018-12-19T11:05:54.461Z,11.00
2018-12-19T11:08:23.357Z,25.77
2018-12-19T11:10:52.061Z,11.77
2018-12-19T11:13:20.839Z,9.53
2018-12-19T11:15:49.673Z,21.40
2018-12-19T11:18:18.450Z,14.90
2018-12-19T11:20:47.277Z,11.57
2018-12-19T11:23:16.083Z,6.00
2018-12-19T11:25:44.848Z,8.67
2018-12-19T11:28:13.549Z,9.27
2018-12-19T11:30:42.414Z,8.58
2018-12-19T11:33:11.208Z,6.23
2018-12-19T11:35:40.061Z,5.13
2018-12-19T11:38:08.876Z,7.60
2018-12-19T11:40:38.589Z,6.53
2018-12-19T11:43:07.407Z,5.33
2018-12-19T11:45:36.255Z,5.78
2018-12-19T11:48:05.019Z,6.35
2018-12-19T11:50:33.856Z,4.93
2018-12-19T11:53:02.736Z,7.40
2018-12-19T11:55:31.524Z,9.60
2018-12-19T11:58:00.225Z,10.27
2018-12-19T12:00:29.076Z,63.17
2018-12-19T12:02:57.791Z,156.50
2018-12-19T12:05:26.589Z,101.73
2018-12-19T12:07:55.324Z,23.53
2018-12-19T12:10:24.100Z,6.30
2018-12-19T12:12:52.828Z,7.00
2018-12-19T12:15:21.628Z,5.47
2018-12-19T12:17:50.465Z,5.83
2018-12-19T12:20:19.293Z,6.00
2018-12-19T12:22:48.202Z,5.77
2018-12-19T12:25:16.988Z,6.70
2018-12-19T12:27:45.687Z,5.77
2018-12-19T12:30:14.544Z,6.00
2018-12-19T12:32:43.342Z,6.07
2018-12-19T12:35:12.234Z,5.85
2018-12-19T12:37:41.093Z,5.83
2018-12-19T12:40:10.003Z,5.50
2018-12-19T12:42:38.944Z,5.27
2018-12-19T12:45:07.990Z,5.60
2018-12-19T12:47:36.892Z,5.60
2018-12-19T12:50:06.023Z,6.77
2018-12-19T12:52:34.818Z,9.17
2018-12-19T12:55:05.120Z,6.53
2018-12-19T12:57:33.849Z,6.55
2018-12-19T13:00:02.718Z,6.33
2018-12-19T13:02:31.468Z,5.70
2018-12-19T13:05:00.200Z,6.27
2018-12-19T13:07:28.926Z,6.40
2018-12-19T13:09:58.061Z,6.33
2018-12-19T13:12:26.861Z,6.60
2018-12-19T13:14:55.771Z,6.40
2018-12-19T13:17:24.481Z,5.72
2018-12-19T13:19:53.185Z,7.12
2018-12-19T13:22:21.972Z,7.07
2018-12-19T13:24:50.817Z,6.92
2018-12-19T13:27:19.612Z,6.83
2018-12-19T13:29:48.544Z,6.67
2018-12-19T13:32:17.509Z,7.30
2018-12-19T13:34:46.310Z,7.43
2018-12-19T13:37:15.112Z,7.97
2018-12-19T13:39:43.873Z,6.97
2018-12-19T13:42:12.594Z,7.57
2018-12-19T13:44:41.440Z,7.87
2018-12-19T13:47:10.145Z,6.28
2018-12-19T13:49:38.844Z,7.20
2018-12-19T13:52:07.621Z,8.07
2018-12-19T13:54:36.683Z,7.90
2018-12-19T13:57:06.328Z,7.87
2018-12-19T13:59:35.177Z,7.90
2018-12-19T14:02:04.083Z,7.73
2018-12-19T14:04:33.356Z,8.93
2018-12-19T14:07:02.193Z,13.40
2018-12-19T14:09:30.933Z,10.80
2018-12-19T14:11:59.752Z,10.10
2018-12-19T14:14:28.601Z,8.33
2018-12-19T14:16:57.376Z,9.08
2018-12-19T14:19:27.240Z,8.10
2018-12-19T14:21:56.076Z,8.37
2018-12-19T14:24:24.908Z,8.17
2018-12-19T14:26:53.624Z,7.40
2018-12-19T14:29:22.452Z,8.40
2018-12-19T14:31:51.175Z,7.90
2018-12-19T14:34:19.939Z,7.80
2018-12-19T14:36:48.833Z,8.10
2018-12-19T14:39:17.773Z,6.20
2018-12-19T14:41:46.652Z,7.00
2018-12-19T14:44:15.383Z,6.07
2018-12-19T14:46:44.231Z,7.47
2018-12-19T14:49:14.043Z,6.53
2018-12-19T14:51:43.204Z,7.45
2018-12-19T14:54:12.010Z,7.87
2018-12-19T14:56:40.837Z,8.40
2018-12-19T14:59:09.644Z,9.73
2018-12-19T15:01:38.448Z,7.35
2018-12-19T15:04:07.208Z,8.05
2018-12-19T15:06:36.017Z,7.93
2018-12-19T15:09:06.160Z,8.27
2018-12-19T15:11:36.844Z,7.03
2018-12-19T15:14:05.687Z,7.33
2018-12-19T15:16:34.616Z,7.23
2018-12-19T15:19:03.437Z,6.30
2018-12-19T15:21:32.304Z,8.13
2018-12-19T15:24:02.207Z,7.70
2018-12-19T15:26:31.242Z,6.57
2018-12-19T15:29:00.392Z,7.57
2018-12-19T15:31:29.185Z,7.47
2018-12-19T15:33:57.954Z,7.53
2018-12-19T15:36:26.844Z,6.77
2018-12-19T15:38:55.549Z,6.97
2018-12-19T15:41:24.357Z,7.80
2018-12-19T15:43:53.118Z,6.57
2018-12-19T15:46:21.868Z,7.37
2018-12-19T15:48:50.828Z,6.20
2018-12-19T15:51:19.560Z,8.08
2018-12-19T15:53:48.571Z,8.47
2018-12-19T15:56:17.287Z,7.57
2018-12-19T15:58:45.992Z,7.45
2018-12-19T16:01:15.012Z,5.60
2018-12-19T16:03:43.785Z,8.13
2018-12-19T16:06:12.552Z,6.33
2018-12-19T16:08:41.406Z,7.28
2018-12-19T16:11:10.157Z,8.50
2018-12-19T16:13:38.981Z,7.43
2018-12-19T16:16:07.796Z,7.30
2018-12-19T16:18:37.582Z,6.67
2018-12-19T16:21:06.285Z,7.03
2018-12-19T16:23:35.196Z,7.07
2018-12-19T16:26:04.044Z,6.13
2018-12-19T16:28:32.793Z,6.60
2018-12-19T16:31:01.584Z,7.67
2018-12-19T16:33:30.343Z,7.67
2018-12-19T16:35:59.116Z,8.35
2018-12-19T16:38:28.016Z,6.37
2018-12-19T16:40:56.733Z,6.30
2018-12-19T16:43:25.574Z,7.70
2018-12-19T16:45:54.308Z,7.43
2018-12-19T16:48:23.281Z,7.40
2018-12-19T16:50:52.076Z,6.80
2018-12-19T16:53:20.845Z,6.92
2018-12-19T16:55:49.609Z,7.80
2018-12-19T16:58:18.450Z,7.00
2018-12-19T17:00:47.356Z,5.33
2018-12-19T17:03:16.071Z,6.80
2018-12-19T17:05:44.821Z,6.60
2018-12-19T17:08:13.673Z,6.93
2018-12-19T17:10:42.633Z,7.22
2018-12-19T17:13:11.431Z,7.00
2018-12-19T17:15:40.131Z,8.23
2018-12-19T17:18:08.990Z,7.70
2018-12-19T17:20:37.775Z,10.23
2018-12-19T17:23:06.649Z,8.47
2018-12-19T17:25:35.429Z,7.67
2018-12-19T17:28:04.377Z,8.10
2018-12-19T17:30:33.284Z,11.33
2018-12-19T17:33:02.009Z,11.07
2018-12-19T17:35:30.757Z,11.97
2018-12-19T17:37:59.481Z,12.30
2018-12-19T17:40:28.184Z,13.17
2018-12-19T17:42:59.480Z,15.20
2018-12-19T17:45:27.732Z,13.10
2018-12-19T17:47:56.582Z,16.30
2018-12-19T17:50:25.421Z,11.53
2018-12-19T17:52:54.136Z,10.40
2018-12-19T17:55:22.883Z,11.87
2018-12-19T17:57:52.220Z,14.73
2018-12-19T18:00:21.142Z,12.33
2018-12-19T18:02:50.020Z,12.90
2018-12-19T18:05:18.724Z,12.17
2018-12-19T18:07:47.440Z,16.87
2018-12-19T18:10:16.821Z,13.57
2018-12-19T18:12:45.696Z,12.80
2018-12-19T18:15:14.482Z,13.80
2018-12-19T18:17:43.366Z,14.47
2018-12-19T18:20:12.200Z,11.33
2018-12-19T18:22:41.137Z,8.30
2018-12-19T18:25:10.192Z,8.83
2018-12-19T18:27:38.932Z,8.67
2018-12-19T18:30:08.840Z,11.07
2018-12-19T18:32:37.581Z,8.77
2018-12-19T18:35:07.357Z,9.90
2018-12-19T18:37:36.072Z,12.87
2018-12-19T18:40:05.009Z,10.40
2018-12-19T18:42:33.880Z,9.17
2018-12-19T18:45:02.584Z,8.47
2018-12-19T18:47:32.344Z,9.33
2018-12-19T18:50:01.040Z,8.47
2018-12-19T18:52:29.788Z,10.23
2018-12-19T18:54:58.929Z,9.43
2018-12-19T18:57:27.763Z,9.97
2018-12-19T18:59:56.572Z,13.00
2018-12-19T19:02:25.322Z,12.20
2018-12-19T19:04:54.220Z,23.40
2018-12-19T19:07:23.107Z,21.63
2018-12-19T19:09:51.900Z,23.53
2018-12-19T19:12:20.786Z,23.90
2018-12-19T19:14:50.425Z,19.03
2018-12-19T19:17:19.260Z,17.37
2018-12-19T19:19:47.996Z,14.20
2018-12-19T19:22:16.704Z,13.80
2018-12-19T19:24:45.665Z,18.47
2018-12-19T19:27:15.477Z,12.33
2018-12-19T19:29:44.289Z,14.33
2018-12-19T19:32:13.064Z,17.87
2018-12-19T19:34:41.924Z,11.07
2018-12-19T19:37:10.780Z,11.23
2018-12-19T19:39:39.502Z,11.30
2018-12-19T19:42:08.270Z,10.85
2018-12-19T19:44:37.120Z,12.97
2018-12-19T19:47:06.011Z,14.03
2018-12-19T19:49:34.762Z,11.07
2018-12-19T19:52:03.566Z,12.73
2018-12-19T19:54:32.473Z,14.83
2018-12-19T19:57:01.505Z,13.03
2018-12-19T19:59:31.389Z,13.90
2018-12-19T20:02:00.101Z,14.33
2018-12-19T20:04:28.890Z,14.77
2018-12-19T20:07:00.921Z,13.47
2018-12-19T20:09:28.468Z,14.87
2018-12-19T20:11:57.536Z,13.07
2018-12-19T20:14:26.394Z,15.30
2018-12-19T20:17:01.415Z,12.30
2018-12-19T20:19:30.543Z,16.07
2018-12-19T20:21:59.280Z,14.93
2018-12-19T20:24:28.096Z,13.58
2018-12-19T20:26:56.905Z,15.23
2018-12-19T20:29:25.644Z,14.90
2018-12-19T20:31:54.361Z,14.37
2018-12-19T20:34:23.249Z,15.10
2018-12-19T20:36:51.989Z,14.53
2018-12-19T20:43:06.922Z,17.10
2018-12-19T20:45:35.905Z,14.57
2018-12-19T20:48:04.801Z,13.50
2018-12-19T20:50:33.517Z,13.80
2018-12-19T20:53:02.470Z,13.32
2018-12-19T20:55:31.268Z,14.17
2018-12-19T20:58:00.179Z,14.70
2018-12-19T21:00:29.115Z,13.15
2018-12-19T21:02:58.013Z,12.07
2018-12-19T21:05:27.433Z,11.43
2018-12-19T21:07:56.326Z,12.33
2018-12-19T21:10:25.053Z,13.20
2018-12-19T21:12:53.856Z,12.70
2018-12-19T21:15:22.645Z,11.83
2018-12-19T21:18:55.696Z,12.00
2018-12-19T21:21:24.412Z,9.87
2018-12-19T21:23:53.342Z,11.23
2018-12-19T21:26:22.128Z,11.87
2018-12-19T21:28:51.081Z,10.43
2018-12-19T21:31:19.872Z,10.87
2018-12-19T21:33:51.944Z,10.73
2018-12-19T21:36:20.789Z,9.87
2018-12-19T21:38:49.943Z,9.27
2018-12-19T21:41:18.681Z,10.47
2018-12-19T21:43:53.422Z,12.87
2018-12-19T21:46:18.381Z,12.10
2018-12-19T21:48:47.730Z,11.65
2018-12-19T21:51:16.464Z,11.00
2018-12-19T21:53:45.247Z,9.80
2018-12-19T21:56:14.234Z,11.27
2018-12-19T21:58:43.058Z,9.63
2018-12-19T22:01:12.000Z,11.83
2018-12-19T22:03:40.804Z,11.30
2018-12-19T22:06:09.663Z,10.37
2018-12-19T22:08:38.523Z,9.47
2018-12-19T22:11:07.418Z,9.23
2018-12-19T22:13:36.245Z,9.40
2018-12-19T22:16:05.199Z,7.70
2018-12-19T22:18:54.765Z,8.85
2018-12-19T22:21:23.516Z,8.35
2018-12-19T22:23:52.375Z,9.00
2018-12-19T22:26:21.111Z,7.47
2018-12-19T22:28:49.918Z,7.60
2018-12-19T22:31:18.623Z,7.33
2018-12-19T22:33:47.391Z,6.30
2018-12-19T22:36:16.637Z,6.80
2018-12-19T22:38:45.341Z,8.08
2018-12-19T22:41:14.180Z,6.33
2018-12-19T22:43:43.031Z,7.47
2018-12-19T22:46:11.806Z,7.70
2018-12-19T22:48:40.576Z,6.27
2018-12-19T22:51:09.492Z,7.23
2018-12-19T22:53:38.397Z,7.40
2018-12-19T22:56:07.225Z,7.87
2018-12-19T22:58:36.018Z,9.00
2018-12-19T23:01:10.852Z,9.83
2018-12-19T23:03:45.001Z,9.13
2018-12-19T23:06:13.838Z,9.43
2018-12-19T23:08:42.548Z,10.57
2018-12-19T23:11:11.340Z,9.18
2018-12-19T23:13:40.140Z,10.13
2018-12-19T23:16:08.449Z,9.63
2018-12-19T23:18:42.914Z,10.58
2018-12-19T23:21:17.460Z,9.73
2018-12-19T23:23:51.849Z,10.18
2018-12-19T23:26:22.401Z,9.50
2018-12-19T23:28:57.418Z,9.87
2018-12-19T23:31:26.496Z,9.33
2018-12-19T23:33:55.361Z,8.63
2018-12-19T23:36:24.269Z,9.97
2018-12-19T23:38:53.127Z,9.73
2018-12-19T23:41:22.035Z,10.27
2018-12-19T23:43:51.008Z,11.10
2018-12-19T23:46:19.862Z,10.37
2018-12-19T23:48:48.660Z,8.87
2018-12-19T23:51:17.543Z,9.40
2018-12-19T23:53:47.231Z,10.50
2018-12-19T23:56:15.955Z,10.67
2018-12-19T23:58:44.817Z,10.40
